sensor_id;sensor_type;location;lat;lon;timestamp;P1;durP1;ratioP1;P2;durP2;ratioP2
9918;SDS011;4998;51.024;13.828;2023-11-21T00:01:31;3.37;;;2.47;;
9918;SDS011;4998;51.024;13.828;2023-11-21T00:03:59;1.97;;;1.50;;
9918;SDS011;4998;51.024;13.828;2023-11-21T00:06:28;1.87;;;1.77;;
9918;SDS011;4998;51.024;13.828;2023-11-21T00:08:55;3.63;;;2.57;;
9918;SDS011;4998;51.024;13.828;2023-11-21T00:11:22;4.73;;;2.03;;
9918;SDS011;4998;51.024;13.828;2023-11-21T00:13:50;3.67;;;2.00;;
9918;SDS011;4998;51.024;13.828;2023-11-21T00:16:17;1.77;;;1.50;;
9918;SDS011;4998;51.024;13.828;2023-11-21T00:18:44;1.80;;;1.70;;
9918;SDS011;4998;51.024;13.828;2023-11-21T00:21:12;1.53;;;1.43;;
9918;SDS011;4998;51.024;13.828;2023-11-21T00:23:40;1.63;;;1.20;;
9918;SDS011;4998;51.024;13.828;2023-11-21T00:26:07;2.10;;;1.20;;
9918;SDS011;4998;51.024;13.828;2023-11-21T00:28:35;1.50;;;1.40;;
9918;SDS011;4998;51.024;13.828;2023-11-21T00:31:02;1.60;;;1.50;;
9918;SDS011;4998;51.024;13.828;2023-11-21T00:33:29;1.93;;;1.40;;
9918;SDS011;4998;51.024;13.828;2023-11-21T00:35:56;1.27;;;1.17;;
9918;SDS011;4998;51.024;13.828;2023-11-21T00:38:23;2.20;;;1.20;;
9918;SDS011;4998;51.024;13.828;2023-11-21T00:40:52;1.37;;;1.00;;
9918;SDS011;4998;51.024;13.828;2023-11-21T00:43:21;1.17;;;0.97;;
9918;SDS011;4998;51.024;13.828;2023-11-21T00:45:48;3.57;;;1.13;;
9918;SDS011;4998;51.024;13.828;2023-11-21T00:48:15;1.40;;;1.00;;
9918;SDS011;4998;51.024;13.828;2023-11-21T00:50:43;1.73;;;1.20;;
9918;SDS011;4998;51.024;13.828;2023-11-21T00:53:10;1.10;;;1.00;;
9918;SDS011;4998;51.024;13.828;2023-11-21T00:55:37;1.77;;;1.40;;
9918;SDS011;4998;51.024;13.828;2023-11-21T00:58:06;1.20;;;1.20;;
9918;SDS011;4998;51.024;13.828;2023-11-21T01:00:33;2.10;;;1.10;;
9918;SDS011;4998;51.024;13.828;2023-11-21T01:03:00;1.40;;;1.30;;
9918;SDS011;4998;51.024;13.828;2023-11-21T01:05:27;1.53;;;1.43;;
9918;SDS011;4998;51.024;13.828;2023-11-21T01:07:54;1.53;;;1.23;;
9918;SDS011;4998;51.024;13.828;2023-11-21T01:10:21;1.73;;;1.20;;
9918;SDS011;4998;51.024;13.828;2023-11-21T01:12:50;9.50;;;1.20;;
9918;SDS011;4998;51.024;13.828;2023-11-21T01:15:18;1.33;;;1.20;;
9918;SDS011;4998;51.024;13.828;2023-11-21T01:17:45;1.40;;;1.30;;
9918;SDS011;4998;51.024;13.828;2023-11-21T01:20:13;2.00;;;1.27;;
9918;SDS011;4998;51.024;13.828;2023-11-21T01:22:40;6.57;;;1.30;;
9918;SDS011;4998;51.024;13.828;2023-11-21T01:25:08;1.07;;;1.07;;
9918;SDS011;4998;51.024;13.828;2023-11-21T01:27:35;1.33;;;1.20;;
9918;SDS011;4998;51.024;13.828;2023-11-21T01:30:03;1.50;;;1.40;;
9918;SDS011;4998;51.024;13.828;2023-11-21T01:32:34;1.43;;;1.33;;
9918;SDS011;4998;51.024;13.828;2023-11-21T01:35:01;2.77;;;1.40;;
9918;SDS011;4998;51.024;13.828;2023-11-21T01:37:30;1.57;;;1.20;;
9918;SDS011;4998;51.024;13.828;2023-11-21T01:39:58;36.80;;;17.17;;
9918;SDS011;4998;51.024;13.828;2023-11-21T01:42:26;10.07;;;6.30;;
9918;SDS011;4998;51.024;13.828;2023-11-21T01:44:54;4.10;;;3.40;;
9918;SDS011;4998;51.024;13.828;2023-11-21T01:47:21;3.70;;;2.30;;
9918;SDS011;4998;51.024;13.828;2023-11-21T01:49:50;2.10;;;1.70;;
9918;SDS011;4998;51.024;13.828;2023-11-21T01:52:18;3.03;;;1.63;;
9918;SDS011;4998;51.024;13.828;2023-11-21T01:54:45;1.20;;;1.10;;
9918;SDS011;4998;51.024;13.828;2023-11-21T01:57:12;1.47;;;1.17;;
9918;SDS011;4998;51.024;13.828;2023-11-21T02:03:03;1.10;;;1.00;;
9918;SDS011;4998;51.024;13.828;2023-11-21T02:05:33;1.33;;;1.23;;
9918;SDS011;4998;51.024;13.828;2023-11-21T02:08:00;1.63;;;1.23;;
9918;SDS011;4998;51.024;13.828;2023-11-21T02:10:28;1.30;;;1.20;;
9918;SDS011;4998;51.024;13.828;2023-11-21T02:12:56;1.13;;;1.10;;
9918;SDS011;4998;51.024;13.828;2023-11-21T02:15:25;1.60;;;1.20;;
9918;SDS011;4998;51.024;13.828;2023-11-21T02:17:54;1.80;;;1.27;;
9918;SDS011;4998;51.024;13.828;2023-11-21T02:20:23;1.63;;;1.30;;
9918;SDS011;4998;51.024;13.828;2023-11-21T02:22:53;1.43;;;1.20;;
9918;SDS011;4998;51.024;13.828;2023-11-21T02:25:23;1.23;;;1.13;;
9918;SDS011;4998;51.024;13.828;2023-11-21T02:27:50;1.40;;;1.20;;
9918;SDS011;4998;51.024;13.828;2023-11-21T02:30:17;1.80;;;1.30;;
9918;SDS011;4998;51.024;13.828;2023-11-21T02:32:44;2.23;;;1.10;;
9918;SDS011;4998;51.024;13.828;2023-11-21T02:35:11;1.33;;;1.20;;
9918;SDS011;4998;51.024;13.828;2023-11-21T02:37:38;2.13;;;1.50;;
9918;SDS011;4998;51.024;13.828;2023-11-21T02:40:09;1.30;;;1.10;;
9918;SDS011;4998;51.024;13.828;2023-11-21T02:42:37;2.00;;;1.40;;
9918;SDS011;4998;51.024;13.828;2023-11-21T02:45:06;3.07;;;1.50;;
9918;SDS011;4998;51.024;13.828;2023-11-21T02:47:33;1.30;;;1.20;;
9918;SDS011;4998;51.024;13.828;2023-11-21T02:50:00;1.40;;;1.30;;
9918;SDS011;4998;51.024;13.828;2023-11-21T02:52:27;2.87;;;1.20;;
9918;SDS011;4998;51.024;13.828;2023-11-21T02:54:54;2.40;;;1.60;;
9918;SDS011;4998;51.024;13.828;2023-11-21T02:57:23;1.30;;;1.20;;
9918;SDS011;4998;51.024;13.828;2023-11-21T02:59:50;1.67;;;1.30;;
9918;SDS011;4998;51.024;13.828;2023-11-21T03:02:17;2.20;;;1.10;;
9918;SDS011;4998;51.024;13.828;2023-11-21T03:04:44;2.60;;;1.30;;
9918;SDS011;4998;51.024;13.828;2023-11-21T03:07:11;1.47;;;1.30;;
9918;SDS011;4998;51.024;13.828;2023-11-21T03:09:38;1.73;;;1.27;;
9918;SDS011;4998;51.024;13.828;2023-11-21T03:12:05;1.73;;;1.30;;
9918;SDS011;4998;51.024;13.828;2023-11-21T03:14:33;4.33;;;1.30;;
9918;SDS011;4998;51.024;13.828;2023-11-21T03:17:00;3.67;;;1.60;;
9918;SDS011;4998;51.024;13.828;2023-11-21T03:19:30;2.43;;;1.33;;
9918;SDS011;4998;51.024;13.828;2023-11-21T03:21:57;1.53;;;1.20;;
9918;SDS011;4998;51.024;13.828;2023-11-21T03:24:24;2.07;;;1.20;;
9918;SDS011;4998;51.024;13.828;2023-11-21T03:26:51;3.20;;;1.67;;
9918;SDS011;4998;51.024;13.828;2023-11-21T03:29:18;1.73;;;1.30;;
9918;SDS011;4998;51.024;13.828;2023-11-21T03:31:47;1.70;;;1.07;;
9918;SDS011;4998;51.024;13.828;2023-11-21T03:34:15;2.97;;;1.37;;
9918;SDS011;4998;51.024;13.828;2023-11-21T03:36:43;2.67;;;1.80;;
9918;SDS011;4998;51.024;13.828;2023-11-21T03:39:11;1.27;;;1.17;;
9918;SDS011;4998;51.024;13.828;2023-11-21T03:41:38;1.40;;;1.30;;
9918;SDS011;4998;51.024;13.828;2023-11-21T03:44:06;3.60;;;1.57;;
9918;SDS011;4998;51.024;13.828;2023-11-21T03:46:33;1.77;;;1.50;;
9918;SDS011;4998;51.024;13.828;2023-11-21T03:49:01;2.53;;;1.50;;
9918;SDS011;4998;51.024;13.828;2023-11-21T03:51:28;2.70;;;1.40;;
9918;SDS011;4998;51.024;13.828;2023-11-21T03:53:54;3.90;;;1.23;;
9918;SDS011;4998;51.024;13.828;2023-11-21T03:56:21;5.70;;;1.40;;
9918;SDS011;4998;51.024;13.828;2023-11-21T03:58:48;1.33;;;1.10;;
9918;SDS011;4998;51.024;13.828;2023-11-21T04:01:19;2.43;;;1.40;;
9918;SDS011;4998;51.024;13.828;2023-11-21T04:03:47;2.70;;;1.40;;
9918;SDS011;4998;51.024;13.828;2023-11-21T04:06:16;1.73;;;1.40;;
9918;SDS011;4998;51.024;13.828;2023-11-21T04:08:44;2.00;;;1.30;;
9918;SDS011;4998;51.024;13.828;2023-11-21T04:11:11;1.33;;;1.10;;
9918;SDS011;4998;51.024;13.828;2023-11-21T04:13:38;2.93;;;1.30;;
9918;SDS011;4998;51.024;13.828;2023-11-21T04:16:06;3.27;;;1.30;;
9918;SDS011;4998;51.024;13.828;2023-11-21T04:18:34;1.43;;;1.33;;
9918;SDS011;4998;51.024;13.828;2023-11-21T04:21:02;2.80;;;1.20;;
9918;SDS011;4998;51.024;13.828;2023-11-21T04:23:30;2.73;;;1.60;;
9918;SDS011;4998;51.024;13.828;2023-11-21T04:25:57;1.90;;;1.20;;
9918;SDS011;4998;51.024;13.828;2023-11-21T04:28:25;2.20;;;1.50;;
9918;SDS011;4998;51.024;13.828;2023-11-21T04:30:52;1.50;;;1.40;;
9918;SDS011;4998;51.024;13.828;2023-11-21T04:33:19;1.93;;;1.40;;
9918;SDS011;4998;51.024;13.828;2023-11-21T04:35:46;4.40;;;1.37;;
9918;SDS011;4998;51.024;13.828;2023-11-21T04:38:13;1.50;;;1.37;;
9918;SDS011;4998;51.024;13.828;2023-11-21T04:40:42;2.57;;;1.37;;
9918;SDS011;4998;51.024;13.828;2023-11-21T04:43:09;1.30;;;1.20;;
9918;SDS011;4998;51.024;13.828;2023-11-21T04:45:36;1.60;;;1.50;;
9918;SDS011;4998;51.024;13.828;2023-11-21T04:48:03;1.50;;;1.40;;
9918;SDS011;4998;51.024;13.828;2023-11-21T04:50:31;1.57;;;1.43;;
9918;SDS011;4998;51.024;13.828;2023-11-21T04:52:58;1.83;;;1.50;;
9918;SDS011;4998;51.024;13.828;2023-11-21T04:55:25;1.40;;;1.30;;
9918;SDS011;4998;51.024;13.828;2023-11-21T04:57:54;3.27;;;1.70;;
9918;SDS011;4998;51.024;13.828;2023-11-21T05:00:21;2.80;;;1.50;;
9918;SDS011;4998;51.024;13.828;2023-11-21T05:02:49;2.10;;;1.90;;
9918;SDS011;4998;51.024;13.828;2023-11-21T05:05:16;2.27;;;1.90;;
9918;SDS011;4998;51.024;13.828;2023-11-21T05:07:43;3.40;;;1.70;;
9918;SDS011;4998;51.024;13.828;2023-11-21T05:10:10;1.73;;;1.60;;
9918;SDS011;4998;51.024;13.828;2023-11-21T05:12:40;3.17;;;1.93;;
9918;SDS011;4998;51.024;13.828;2023-11-21T05:15:09;1.50;;;1.40;;
9918;SDS011;4998;51.024;13.828;2023-11-21T05:17:39;2.40;;;2.00;;
9918;SDS011;4998;51.024;13.828;2023-11-21T05:20:08;2.60;;;2.00;;
9918;SDS011;4998;51.024;13.828;2023-11-21T05:22:36;2.60;;;1.73;;
9918;SDS011;4998;51.024;13.828;2023-11-21T05:25:05;2.10;;;1.60;;
9918;SDS011;4998;51.024;13.828;2023-11-21T05:27:33;3.53;;;1.93;;
9918;SDS011;4998;51.024;13.828;2023-11-21T05:30:01;1.90;;;1.60;;
9918;SDS011;4998;51.024;13.828;2023-11-21T05:32:31;2.23;;;1.90;;
9918;SDS011;4998;51.024;13.828;2023-11-21T05:34:59;2.43;;;1.80;;
9918;SDS011;4998;51.024;13.828;2023-11-21T05:37:26;5.53;;;2.10;;
9918;SDS011;4998;51.024;13.828;2023-11-21T05:39:53;4.27;;;2.00;;
9918;SDS011;4998;51.024;13.828;2023-11-21T05:42:21;6.43;;;2.10;;
9918;SDS011;4998;51.024;13.828;2023-11-21T05:44:48;4.90;;;2.23;;
9918;SDS011;4998;51.024;13.828;2023-11-21T05:47:16;1.80;;;1.70;;
9918;SDS011;4998;51.024;13.828;2023-11-21T05:49:44;3.00;;;2.10;;
9918;SDS011;4998;51.024;13.828;2023-11-21T05:52:15;1.90;;;1.70;;
9918;SDS011;4998;51.024;13.828;2023-11-21T05:54:42;2.70;;;1.67;;
9918;SDS011;4998;51.024;13.828;2023-11-21T05:57:09;4.77;;;1.70;;
9918;SDS011;4998;51.024;13.828;2023-11-21T05:59:36;1.90;;;1.63;;
9918;SDS011;4998;51.024;13.828;2023-11-21T06:02:04;2.60;;;2.30;;
9918;SDS011;4998;51.024;13.828;2023-11-21T06:04:32;2.73;;;1.93;;
9918;SDS011;4998;51.024;13.828;2023-11-21T06:07:01;1.67;;;1.40;;
9918;SDS011;4998;51.024;13.828;2023-11-21T06:09:29;2.60;;;1.80;;
9918;SDS011;4998;51.024;13.828;2023-11-21T06:11:56;6.60;;;2.20;;
9918;SDS011;4998;51.024;13.828;2023-11-21T06:14:23;1.83;;;1.70;;
9918;SDS011;4998;51.024;13.828;2023-11-21T06:16:50;2.20;;;1.67;;
9918;SDS011;4998;51.024;13.828;2023-11-21T06:19:17;2.80;;;1.80;;
9918;SDS011;4998;51.024;13.828;2023-11-21T06:21:45;4.83;;;1.90;;
9918;SDS011;4998;51.024;13.828;2023-11-21T06:24:14;2.43;;;1.90;;
9918;SDS011;4998;51.024;13.828;2023-11-21T06:26:42;2.20;;;1.83;;
9918;SDS011;4998;51.024;13.828;2023-11-21T06:29:10;2.30;;;1.90;;
9918;SDS011;4998;51.024;13.828;2023-11-21T06:31:37;6.43;;;2.87;;
9918;SDS011;4998;51.024;13.828;2023-11-21T06:34:06;2.40;;;2.10;;
9918;SDS011;4998;51.024;13.828;2023-11-21T06:36:34;3.53;;;2.07;;
9918;SDS011;4998;51.024;13.828;2023-11-21T06:39:01;3.10;;;2.40;;
9918;SDS011;4998;51.024;13.828;2023-11-21T06:41:33;3.00;;;2.40;;
9918;SDS011;4998;51.024;13.828;2023-11-21T06:44:00;2.93;;;2.50;;
9918;SDS011;4998;51.024;13.828;2023-11-21T06:46:27;3.83;;;2.90;;
9918;SDS011;4998;51.024;13.828;2023-11-21T06:48:55;4.00;;;2.90;;
9918;SDS011;4998;51.024;13.828;2023-11-21T06:51:22;3.77;;;3.37;;
9918;SDS011;4998;51.024;13.828;2023-11-21T06:53:49;9.17;;;3.47;;
9918;SDS011;4998;51.024;13.828;2023-11-21T06:56:16;7.17;;;3.90;;
9918;SDS011;4998;51.024;13.828;2023-11-21T06:58:45;5.40;;;3.50;;
9918;SDS011;4998;51.024;13.828;2023-11-21T07:01:12;4.90;;;2.80;;
9918;SDS011;4998;51.024;13.828;2023-11-21T07:03:40;2.80;;;2.60;;
9918;SDS011;4998;51.024;13.828;2023-11-21T07:06:08;6.33;;;2.87;;
9918;SDS011;4998;51.024;13.828;2023-11-21T07:08:35;3.93;;;2.73;;
9918;SDS011;4998;51.024;13.828;2023-11-21T07:11:02;3.60;;;2.70;;
9918;SDS011;4998;51.024;13.828;2023-11-21T07:13:29;5.50;;;2.57;;
9918;SDS011;4998;51.024;13.828;2023-11-21T07:15:59;4.93;;;2.43;;
9918;SDS011;4998;51.024;13.828;2023-11-21T07:18:26;3.93;;;2.50;;
9918;SDS011;4998;51.024;13.828;2023-11-21T07:20:53;2.70;;;2.47;;
9918;SDS011;4998;51.024;13.828;2023-11-21T07:23:20;4.80;;;2.90;;
9918;SDS011;4998;51.024;13.828;2023-11-21T07:25:48;9.43;;;3.10;;
9918;SDS011;4998;51.024;13.828;2023-11-21T07:28:15;5.10;;;3.00;;
9918;SDS011;4998;51.024;13.828;2023-11-21T07:30:42;5.73;;;3.10;;
9918;SDS011;4998;51.024;13.828;2023-11-21T07:33:10;3.80;;;2.80;;
9918;SDS011;4998;51.024;13.828;2023-11-21T07:35:37;5.60;;;3.20;;
9918;SDS011;4998;51.024;13.828;2023-11-21T07:38:04;6.40;;;3.33;;
9918;SDS011;4998;51.024;13.828;2023-11-21T07:40:31;4.43;;;2.70;;
9918;SDS011;4998;51.024;13.828;2023-11-21T07:42:58;6.30;;;3.40;;
9918;SDS011;4998;51.024;13.828;2023-11-21T07:45:25;4.80;;;2.93;;
9918;SDS011;4998;51.024;13.828;2023-11-21T07:47:53;5.30;;;3.40;;
9918;SDS011;4998;51.024;13.828;2023-11-21T07:50:22;4.63;;;3.33;;
9918;SDS011;4998;51.024;13.828;2023-11-21T07:52:49;8.13;;;3.07;;
9918;SDS011;4998;51.024;13.828;2023-11-21T07:55:16;6.17;;;3.17;;
9918;SDS011;4998;51.024;13.828;2023-11-21T07:57:43;7.17;;;3.50;;
9918;SDS011;4998;51.024;13.828;2023-11-21T08:00:11;3.97;;;2.97;;
9918;SDS011;4998;51.024;13.828;2023-11-21T08:02:40;5.53;;;3.27;;
9918;SDS011;4998;51.024;13.828;2023-11-21T08:05:11;7.83;;;3.80;;
9918;SDS011;4998;51.024;13.828;2023-11-21T08:07:39;7.50;;;3.27;;
9918;SDS011;4998;51.024;13.828;2023-11-21T08:10:07;5.43;;;3.50;;
9918;SDS011;4998;51.024;13.828;2023-11-21T08:12:36;6.00;;;3.50;;
9918;SDS011;4998;51.024;13.828;2023-11-21T08:15:04;5.97;;;4.13;;
9918;SDS011;4998;51.024;13.828;2023-11-21T08:17:32;9.50;;;3.70;;
9918;SDS011;4998;51.024;13.828;2023-11-21T08:20:00;7.90;;;4.40;;
9918;SDS011;4998;51.024;13.828;2023-11-21T08:22:28;7.90;;;4.00;;
9918;SDS011;4998;51.024;13.828;2023-11-21T08:24:57;8.30;;;3.27;;
9918;SDS011;4998;51.024;13.828;2023-11-21T08:27:24;5.83;;;3.80;;
9918;SDS011;4998;51.024;13.828;2023-11-21T08:29:51;12.13;;;4.07;;
9918;SDS011;4998;51.024;13.828;2023-11-21T08:32:18;11.30;;;4.20;;
9918;SDS011;4998;51.024;13.828;2023-11-21T08:34:45;7.33;;;3.93;;
9918;SDS011;4998;51.024;13.828;2023-11-21T08:37:15;8.10;;;4.17;;
9918;SDS011;4998;51.024;13.828;2023-11-21T08:39:43;8.57;;;4.40;;
9918;SDS011;4998;51.024;13.828;2023-11-21T08:42:11;9.17;;;4.80;;
9918;SDS011;4998;51.024;13.828;2023-11-21T08:44:38;9.00;;;4.70;;
9918;SDS011;4998;51.024;13.828;2023-11-21T08:47:05;6.03;;;4.40;;
9918;SDS011;4998;51.024;13.828;2023-11-21T08:49:32;11.80;;;5.50;;
9918;SDS011;4998;51.024;13.828;2023-11-21T08:51:59;11.20;;;5.70;;
9918;SDS011;4998;51.024;13.828;2023-11-21T08:54:26;8.07;;;4.57;;
9918;SDS011;4998;51.024;13.828;2023-11-21T08:56:53;9.93;;;5.00;;
9918;SDS011;4998;51.024;13.828;2023-11-21T08:59:24;9.30;;;5.50;;
9918;SDS011;4998;51.024;13.828;2023-11-21T09:01:51;9.50;;;5.10;;
9918;SDS011;4998;51.024;13.828;2023-11-21T09:04:18;12.20;;;5.77;;
9918;SDS011;4998;51.024;13.828;2023-11-21T09:06:45;7.97;;;5.63;;
9918;SDS011;4998;51.024;13.828;2023-11-21T09:09:12;8.43;;;4.80;;
9918;SDS011;4998;51.024;13.828;2023-11-21T09:11:39;6.60;;;5.10;;
9918;SDS011;4998;51.024;13.828;2023-11-21T09:14:07;9.00;;;5.17;;
9918;SDS011;4998;51.024;13.828;2023-11-21T09:16:36;7.53;;;4.90;;
9918;SDS011;4998;51.024;13.828;2023-11-21T09:19:04;7.27;;;4.53;;
9918;SDS011;4998;51.024;13.828;2023-11-21T09:21:31;7.20;;;4.93;;
9918;SDS011;4998;51.024;13.828;2023-11-21T09:23:59;4.83;;;3.83;;
9918;SDS011;4998;51.024;13.828;2023-11-21T09:26:26;4.60;;;3.67;;
9918;SDS011;4998;51.024;13.828;2023-11-21T09:28:55;3.90;;;3.40;;
9918;SDS011;4998;51.024;13.828;2023-11-21T09:31:22;4.77;;;3.77;;
9918;SDS011;4998;51.024;13.828;2023-11-21T09:33:50;7.13;;;3.63;;
9918;SDS011;4998;51.024;13.828;2023-11-21T09:36:18;3.80;;;3.50;;
9918;SDS011;4998;51.024;13.828;2023-11-21T09:38:47;7.23;;;4.20;;
9918;SDS011;4998;51.024;13.828;2023-11-21T09:41:16;5.10;;;3.83;;
9918;SDS011;4998;51.024;13.828;2023-11-21T09:43:47;6.10;;;3.80;;
9918;SDS011;4998;51.024;13.828;2023-11-21T09:46:21;5.07;;;3.70;;
9918;SDS011;4998;51.024;13.828;2023-11-21T09:48:53;5.17;;;3.70;;
9918;SDS011;4998;51.024;13.828;2023-11-21T09:51:22;5.20;;;3.90;;
9918;SDS011;4998;51.024;13.828;2023-11-21T09:53:55;6.33;;;3.13;;
9918;SDS011;4998;51.024;13.828;2023-11-21T09:56:26;4.63;;;3.80;;
9918;SDS011;4998;51.024;13.828;2023-11-21T09:58:55;4.20;;;3.80;;
9918;SDS011;4998;51.024;13.828;2023-11-21T10:01:24;4.53;;;3.03;;
9918;SDS011;4998;51.024;13.828;2023-11-21T10:03:54;3.53;;;3.00;;
9918;SDS011;4998;51.024;13.828;2023-11-21T10:06:22;2.90;;;2.60;;
9918;SDS011;4998;51.024;13.828;2023-11-21T10:08:51;2.50;;;2.30;;
9918;SDS011;4998;51.024;13.828;2023-11-21T10:11:22;3.00;;;2.33;;
9918;SDS011;4998;51.024;13.828;2023-11-21T10:13:52;1.67;;;1.67;;
9918;SDS011;4998;51.024;13.828;2023-11-21T10:16:23;1.97;;;1.87;;
9918;SDS011;4998;51.024;13.828;2023-11-21T10:18:54;2.00;;;1.90;;
9918;SDS011;4998;51.024;13.828;2023-11-21T10:21:23;2.27;;;2.17;;
9918;SDS011;4998;51.024;13.828;2023-11-21T10:23:50;3.00;;;2.17;;
9918;SDS011;4998;51.024;13.828;2023-11-21T10:26:19;2.37;;;2.20;;
9918;SDS011;4998;51.024;13.828;2023-11-21T10:28:55;3.37;;;2.70;;
9918;SDS011;4998;51.024;13.828;2023-11-21T10:31:23;2.47;;;2.27;;
9918;SDS011;4998;51.024;13.828;2023-11-21T10:33:50;3.80;;;3.10;;
9918;SDS011;4998;51.024;13.828;2023-11-21T10:36:29;3.40;;;3.10;;
9918;SDS011;4998;51.024;13.828;2023-11-21T10:38:56;3.70;;;3.30;;
9918;SDS011;4998;51.024;13.828;2023-11-21T10:41:23;3.73;;;3.37;;
9918;SDS011;4998;51.024;13.828;2023-11-21T10:43:52;4.10;;;3.60;;
9918;SDS011;4998;51.024;13.828;2023-11-21T10:46:21;4.07;;;3.67;;
9918;SDS011;4998;51.024;13.828;2023-11-21T10:48:52;3.80;;;3.40;;
9918;SDS011;4998;51.024;13.828;2023-11-21T10:51:22;4.90;;;4.20;;
9918;SDS011;4998;51.024;13.828;2023-11-21T10:53:52;5.30;;;4.03;;
9918;SDS011;4998;51.024;13.828;2023-11-21T10:56:19;5.33;;;4.40;;
9918;SDS011;4998;51.024;13.828;2023-11-21T10:58:50;4.73;;;4.30;;
9918;SDS011;4998;51.024;13.828;2023-11-21T11:01:17;4.73;;;4.30;;
9918;SDS011;4998;51.024;13.828;2023-11-21T11:03:46;5.20;;;4.57;;
9918;SDS011;4998;51.024;13.828;2023-11-21T11:06:14;4.73;;;4.20;;
9918;SDS011;4998;51.024;13.828;2023-11-21T11:08:42;5.37;;;4.67;;
9918;SDS011;4998;51.024;13.828;2023-11-21T11:11:12;5.93;;;4.80;;
9918;SDS011;4998;51.024;13.828;2023-11-21T11:13:42;6.23;;;5.50;;
9918;SDS011;4998;51.024;13.828;2023-11-21T11:16:11;5.67;;;5.10;;
9918;SDS011;4998;51.024;13.828;2023-11-21T11:18:42;6.70;;;5.50;;
9918;SDS011;4998;51.024;13.828;2023-11-21T11:21:15;5.93;;;4.63;;
9918;SDS011;4998;51.024;13.828;2023-11-21T11:23:56;5.80;;;5.20;;
9918;SDS011;4998;51.024;13.828;2023-11-21T11:26:41;5.67;;;5.00;;
9918;SDS011;4998;51.024;13.828;2023-11-21T11:29:14;5.10;;;4.50;;
9918;SDS011;4998;51.024;13.828;2023-11-21T11:31:55;5.50;;;4.23;;
9918;SDS011;4998;51.024;13.828;2023-11-21T11:34:30;4.10;;;3.70;;
9918;SDS011;4998;51.024;13.828;2023-11-21T11:37:03;5.23;;;3.80;;
9918;SDS011;4998;51.024;13.828;2023-11-21T11:39:35;3.97;;;3.50;;
9918;SDS011;4998;51.024;13.828;2023-11-21T11:42:06;3.60;;;3.30;;
9918;SDS011;4998;51.024;13.828;2023-11-21T11:44:46;3.57;;;3.27;;
9918;SDS011;4998;51.024;13.828;2023-11-21T11:47:20;4.40;;;3.50;;
9918;SDS011;4998;51.024;13.828;2023-11-21T11:49:56;3.90;;;3.50;;
9918;SDS011;4998;51.024;13.828;2023-11-21T11:52:33;4.70;;;4.20;;
9918;SDS011;4998;51.024;13.828;2023-11-21T11:55:02;7.00;;;4.07;;
9918;SDS011;4998;51.024;13.828;2023-11-21T11:57:31;4.30;;;3.90;;
9918;SDS011;4998;51.024;13.828;2023-11-21T12:00:13;5.03;;;4.20;;
9918;SDS011;4998;51.024;13.828;2023-11-21T12:02:50;4.83;;;4.33;;
9918;SDS011;4998;51.024;13.828;2023-11-21T12:05:19;4.00;;;3.60;;
9918;SDS011;4998;51.024;13.828;2023-11-21T12:07:48;4.47;;;4.00;;
9918;SDS011;4998;51.024;13.828;2023-11-21T12:10:18;8.80;;;4.00;;
9918;SDS011;4998;51.024;13.828;2023-11-21T12:12:49;4.70;;;4.00;;
9918;SDS011;4998;51.024;13.828;2023-11-21T12:15:18;4.57;;;4.17;;
9918;SDS011;4998;51.024;13.828;2023-11-21T12:17:46;5.17;;;4.30;;
9918;SDS011;4998;51.024;13.828;2023-11-21T12:20:16;4.93;;;4.43;;
9918;SDS011;4998;51.024;13.828;2023-11-21T12:22:45;5.17;;;4.73;;
9918;SDS011;4998;51.024;13.828;2023-11-21T12:25:16;5.20;;;4.47;;
9918;SDS011;4998;51.024;13.828;2023-11-21T12:27:45;5.37;;;4.40;;
9918;SDS011;4998;51.024;13.828;2023-11-21T12:30:16;4.73;;;4.33;;
9918;SDS011;4998;51.024;13.828;2023-11-21T12:32:44;5.53;;;4.30;;
9918;SDS011;4998;51.024;13.828;2023-11-21T12:35:14;5.13;;;4.17;;
9918;SDS011;4998;51.024;13.828;2023-11-21T12:37:44;6.10;;;4.90;;
9918;SDS011;4998;51.024;13.828;2023-11-21T12:40:13;5.70;;;4.40;;
9918;SDS011;4998;51.024;13.828;2023-11-21T12:42:42;4.63;;;4.00;;
9918;SDS011;4998;51.024;13.828;2023-11-21T12:45:22;5.00;;;4.17;;
9918;SDS011;4998;51.024;13.828;2023-11-21T12:47:51;5.50;;;4.10;;
9918;SDS011;4998;51.024;13.828;2023-11-21T12:50:21;7.20;;;4.10;;
9918;SDS011;4998;51.024;13.828;2023-11-21T12:52:53;5.47;;;4.30;;
9918;SDS011;4998;51.024;13.828;2023-11-21T12:55:24;5.03;;;4.50;;
9918;SDS011;4998;51.024;13.828;2023-11-21T12:57:52;5.43;;;4.87;;
9918;SDS011;4998;51.024;13.828;2023-11-21T13:00:31;4.57;;;4.17;;
9918;SDS011;4998;51.024;13.828;2023-11-21T13:03:02;5.83;;;4.53;;
9918;SDS011;4998;51.024;13.828;2023-11-21T13:05:32;6.07;;;4.50;;
9918;SDS011;4998;51.024;13.828;2023-11-21T13:08:04;5.23;;;4.73;;
9918;SDS011;4998;51.024;13.828;2023-11-21T13:10:33;5.30;;;4.80;;
9918;SDS011;4998;51.024;13.828;2023-11-21T13:13:01;4.90;;;4.50;;
9918;SDS011;4998;51.024;13.828;2023-11-21T13:15:35;4.87;;;4.47;;
9918;SDS011;4998;51.024;13.828;2023-11-21T13:18:06;4.60;;;4.20;;
9918;SDS011;4998;51.024;13.828;2023-11-21T13:20:36;5.30;;;4.80;;
9918;SDS011;4998;51.024;13.828;2023-11-21T13:23:07;5.53;;;4.97;;
9918;SDS011;4998;51.024;13.828;2023-11-21T13:25:37;5.83;;;5.27;;
9918;SDS011;4998;51.024;13.828;2023-11-21T13:28:06;5.67;;;5.13;;
9918;SDS011;4998;51.024;13.828;2023-11-21T13:30:36;6.20;;;5.60;;
9918;SDS011;4998;51.024;13.828;2023-11-21T13:33:05;5.90;;;5.30;;
9918;SDS011;4998;51.024;13.828;2023-11-21T13:35:33;5.43;;;4.93;;
9918;SDS011;4998;51.024;13.828;2023-11-21T13:38:04;5.20;;;4.70;;
9918;SDS011;4998;51.024;13.828;2023-11-21T13:40:32;5.63;;;5.07;;
9918;SDS011;4998;51.024;13.828;2023-11-21T13:43:05;5.67;;;4.50;;
9918;SDS011;4998;51.024;13.828;2023-11-21T13:45:36;5.13;;;4.67;;
9918;SDS011;4998;51.024;13.828;2023-11-21T13:48:04;5.30;;;4.80;;
9918;SDS011;4998;51.024;13.828;2023-11-21T13:50:35;4.70;;;4.30;;
9918;SDS011;4998;51.024;13.828;2023-11-21T13:53:02;7.60;;;5.53;;
9918;SDS011;4998;51.024;13.828;2023-11-21T13:55:35;7.07;;;5.00;;
9918;SDS011;4998;51.024;13.828;2023-11-21T13:58:05;5.17;;;4.67;;
9918;SDS011;4998;51.024;13.828;2023-11-21T14:00:37;6.97;;;5.80;;
9918;SDS011;4998;51.024;13.828;2023-11-21T14:03:11;6.87;;;5.20;;
9918;SDS011;4998;51.024;13.828;2023-11-21T14:05:47;8.10;;;6.60;;
9918;SDS011;4998;51.024;13.828;2023-11-21T14:08:17;8.37;;;6.50;;
9918;SDS011;4998;51.024;13.828;2023-11-21T14:10:46;7.77;;;6.17;;
9918;SDS011;4998;51.024;13.828;2023-11-21T14:13:20;9.30;;;6.53;;
9918;SDS011;4998;51.024;13.828;2023-11-21T14:15:50;8.97;;;6.37;;
9918;SDS011;4998;51.024;13.828;2023-11-21T14:18:22;11.97;;;6.73;;
9918;SDS011;4998;51.024;13.828;2023-11-21T14:20:55;8.50;;;6.33;;
9918;SDS011;4998;51.024;13.828;2023-11-21T14:23:22;14.97;;;10.27;;
9918;SDS011;4998;51.024;13.828;2023-11-21T14:25:49;12.20;;;7.47;;
9918;SDS011;4998;51.024;13.828;2023-11-21T14:28:17;8.50;;;6.50;;
9918;SDS011;4998;51.024;13.828;2023-11-21T14:30:44;8.60;;;6.20;;
9918;SDS011;4998;51.024;13.828;2023-11-21T14:33:13;7.80;;;6.10;;
9918;SDS011;4998;51.024;13.828;2023-11-21T14:35:41;10.73;;;5.97;;
9918;SDS011;4998;51.024;13.828;2023-11-21T14:38:08;9.57;;;5.73;;
9918;SDS011;4998;51.024;13.828;2023-11-21T14:40:35;7.33;;;6.00;;
9918;SDS011;4998;51.024;13.828;2023-11-21T14:43:03;9.00;;;6.13;;
9918;SDS011;4998;51.024;13.828;2023-11-21T14:45:31;6.53;;;5.70;;
9918;SDS011;4998;51.024;13.828;2023-11-21T14:47:59;7.67;;;5.50;;
9918;SDS011;4998;51.024;13.828;2023-11-21T14:50:34;5.83;;;5.00;;
9918;SDS011;4998;51.024;13.828;2023-11-21T14:53:42;6.00;;;4.60;;
9918;SDS011;4998;51.024;13.828;2023-11-21T14:56:18;6.77;;;4.63;;
9918;SDS011;4998;51.024;13.828;2023-11-21T14:58:52;5.07;;;4.57;;
9918;SDS011;4998;51.024;13.828;2023-11-21T15:01:20;8.63;;;5.90;;
9918;SDS011;4998;51.024;13.828;2023-11-21T15:04:00;6.17;;;4.73;;
9918;SDS011;4998;51.024;13.828;2023-11-21T15:06:28;6.50;;;4.83;;
9918;SDS011;4998;51.024;13.828;2023-11-21T15:08:55;6.30;;;4.50;;
9918;SDS011;4998;51.024;13.828;2023-11-21T15:11:46;5.73;;;4.40;;
9918;SDS011;4998;51.024;13.828;2023-11-21T15:14:13;5.23;;;4.57;;